Racecast

Alexis Mark

Stockton Starz (CA) · - · Compare head to head

Athlete rating
Races 50
Seasons 5 2011 — 2016
Speed rating — all races

Track & Field

TF speed rating

2016 TF

Stockton Starz (CA) · Grade -

Date Meet Event Result Place Rating Difficulty PR/SR Flags
2016-06-12 USATF Pacific Association Youth Championship 200m 31.84 57th · 4th on team -0.035
2016-06-12 USATF Pacific Association Youth Championship 100m 14.96 60th · 3rd on team -0.035 SR
2016-06-04 M.P. Striders USATF Youth T&F Sectionals 100m 15.29 24th · 1st on team -0.019
2016-05-15 3M USATF Youth T&F Meet 100m 15.21 71st · 3rd on team -0.028 SR
2016-04-09 Contra Costa Cheetahs Invitational 100m 15.53 49th · 4th on team -0.017
2016-04-02 Sac Speed Factory USATF Youth T&F Meet 100m 15.53 55th · 3rd on team -0.033 SR
2016-04-02 Sac Speed Factory USATF Youth T&F Meet 400m 1:16.92 60th · 3rd on team -0.033 SR
2016-04-02 Sac Speed Factory USATF Youth T&F Meet 200m 31.37 42nd · 2nd on team -0.033 SR

2014 TF

Stockton Starz (CA) · Grade -

Date Meet Event Result Place Rating Difficulty PR/SR Flags
2014-05-31 Pacific Association Championships (PAC) 200m 31.02 36th · 3rd on team -0.024
2014-05-31 Pacific Association Championships (PAC) 400m 1:10.52 20th · 2nd on team -0.024 ★PR SR
2014-05-18 3M Invitational 200m 31.96 19th · 4th on team -0.028
2014-05-18 3M Invitational 400m 1:11.58 15th · 2nd on team -0.028 PR SR
2014-04-19 3rd Annual Shor/Sheppard Classic Meet 400m 1:14.29 11th · 2nd on team -0.022
2014-04-19 3rd Annual Shor/Sheppard Classic Meet 200m 31.8 2nd · 2nd on team -0.022
2014-04-19 3rd Annual Shor/Sheppard Classic Meet 100m 15.34 19th · 4th on team -0.022
2014-04-12 Stocton Saints 400m 1:13.32 6th · 2nd on team -0.027 PR SR
2014-04-12 Stocton Saints 200m 31.64 10th · 3rd on team -0.027
2014-04-05 Sacramento Speed Showcase 100m 14.81 28th · 4th on team -0.033 ★PR SR
2014-04-05 Sacramento Speed Showcase 400m 1:14.1 29th · 2nd on team -0.033 PR SR
2014-04-05 Sacramento Speed Showcase 200m 30.98 14th · 1st on team -0.033 ★PR SR
2014-03-22 RPM 400m 1:16.94 38th · 2nd on team -0.012 PR SR

2013 TF

Stockton Starz (CA) · Grade -

Date Meet Event Result Place Rating Difficulty PR/SR Flags
2013-06-08 Pacific Association Youth Championship (PAC) - 2-day meet 200m 32.92 21st · 4th on team -0.024 PR SR
2013-06-08 Pacific Association Youth Championship (PAC) - 2-day meet 100m 15.58 15th · 3rd on team -0.024 PR SR
2013-05-18 3M Track Club 200m 33.85 25th · 4th on team -0.028
2013-05-04 Hercules / Running Rebels (2-day) 200m 33.19 23rd · 4th on team -0.038
2013-05-04 Hercules / Running Rebels (2-day) 100m 15.92 32nd · 4th on team -0.038
2013-04-27 Revolution Express Track Club 100m 15.83 14th · 3rd on team -0.024
2013-04-27 Revolution Express Track Club 200m 33.56 13th · 4th on team -0.024
2013-04-20 Shor / Sheppard Classic 200m 33.11 21st · 4th on team -0.022 PR SR
2013-04-20 Shor / Sheppard Classic 100m 15.71 13th · 3rd on team -0.022 PR SR
2013-04-06 Sacramento Speed Showcase 200m 34.35 17th · 4th on team -0.031 PR SR
2013-04-06 Sacramento Speed Showcase 100m 16.02 18th · 3rd on team -0.031
2013-03-30 Stockton Saints 100m 16.01 21st · 4th on team -0.016 PR SR

2012 TF

Stockton Starz (CA) · Grade -

Date Meet Event Result Place Rating Difficulty PR/SR Flags
2012-06-09 Pacific Association Youth Championships 100m 16.35 28th · 5th on team -0.034
2012-06-09 Pacific Association Youth Championships 200m 34.71 28th · 4th on team -0.034
2012-05-19 3M Track Meet 100m 16.75 59th · 3rd on team -0.031
2012-05-19 3M Track Meet 200m 34.95 46th · 4th on team -0.031
2012-05-05 Hercules Running Rebels / Top Pacers Invitational 200m 34.67 38th · 3rd on team -0.038 PR SR
2012-05-05 Hercules Running Rebels / Top Pacers Invitational 100m 16.23 39th · 4th on team -0.038 PR SR
2012-04-21 Shor / Sheppard Classic 400m 1:21.52 27th · 3rd on team -0.022 PR SR
2012-04-21 Shor / Sheppard Classic 100m 16.25 39th · 3rd on team -0.022 PR SR
2012-04-07 Phenom Elite 100m 16.86 37th · 4th on team -0.022 PR SR

2011 TF

Stockton Starz (CA) · Grade -

Date Meet Event Result Place Rating Difficulty PR/SR Flags
2011-06-11 PA USATF Youth Championships (PAC) 200m 40.3 24th · 6th on team -0.028
2011-06-11 PA USATF Youth Championships (PAC) 100m 18.81 31st · 5th on team -0.028
2011-05-21 Hercules Running Rebels & Top Pacers Track Club Invitational 100m 17.43 22nd · 5th on team -0.038 PR SR
2011-05-21 Hercules Running Rebels & Top Pacers Track Club Invitational 200m 38.15 15th · 4th on team -0.038 PR SR
2011-05-14 3M Track Club Invitational 100m 19.19 36th · 5th on team -0.028
2011-05-14 3M Track Club Invitational 200m 41.38 21st · 3rd on team -0.028 PR SR
2011-04-15 CA Track Club Invitational Meet 200m 41.78 29th · 4th on team -0.033 PR SR
2011-04-15 CA Track Club Invitational Meet 100m 17.9 18th · 4th on team -0.033 PR SR